createdAt,value
2023-01-22T00:03:07.640Z,102193.25
2023-01-22T00:08:09.708Z,102184.97
2023-01-22T00:13:11.619Z,102189.00
2023-01-22T00:18:15.546Z,102182.63
2023-01-22T00:23:17.748Z,102189.59
2023-01-22T00:28:19.792Z,102188.03
2023-01-22T00:33:23.080Z,102180.84
2023-01-22T00:38:25.147Z,102178.25
2023-01-22T00:43:27.455Z,102182.94
2023-01-22T00:48:31.058Z,102184.44
2023-01-22T00:53:33.176Z,102190.41
2023-01-22T00:58:35.524Z,102189.38
2023-01-22T01:03:38.904Z,102192.13
2023-01-22T01:08:43.163Z,102186.22
2023-01-22T01:13:45.547Z,102191.00
2023-01-22T01:18:49.271Z,102191.84
2023-01-22T01:23:51.020Z,102198.94
2023-01-22T01:28:52.965Z,102199.69
2023-01-22T01:33:56.555Z,102208.81
2023-01-22T01:38:58.637Z,102203.28
2023-01-22T01:44:09.216Z,102205.72
2023-01-22T01:49:18.793Z,102218.69
2023-01-22T01:54:21.163Z,102225.84
2023-01-22T01:59:24.081Z,102218.22
2023-01-22T02:04:28.432Z,102217.34
2023-01-22T02:09:31.021Z,102235.06
2023-01-22T02:14:35.038Z,102231.97
2023-01-22T02:19:38.471Z,102234.84
2023-01-22T02:24:42.013Z,102232.59
2023-01-22T02:29:44.171Z,102225.25
2023-01-22T02:34:46.262Z,102228.84
2023-01-22T02:39:49.331Z,102223.00
2023-01-22T02:44:51.702Z,102220.91
2023-01-22T02:49:53.956Z,102230.22
2023-01-22T02:54:57.260Z,102229.25
2023-01-22T02:59:59.554Z,102225.84
2023-01-22T03:05:01.631Z,102227.22
2023-01-22T03:10:05.860Z,102236.91
2023-01-22T03:15:09.265Z,102239.75
2023-01-22T03:20:11.905Z,102250.09
2023-01-22T03:25:15.417Z,102242.25
2023-01-22T03:30:18.448Z,102243.88
2023-01-22T03:35:20.591Z,102239.47
2023-01-22T03:40:24.212Z,102242.25
2023-01-22T03:45:27.858Z,102244.00
2023-01-22T03:50:30.494Z,102247.56
2023-01-22T03:55:33.989Z,102250.00
2023-01-22T04:00:36.051Z,102256.38
2023-01-22T04:05:37.742Z,102259.63
2023-01-22T04:10:42.440Z,102255.16
2023-01-22T04:15:44.846Z,102252.03
2023-01-22T04:20:48.535Z,102258.75
2023-01-22T04:25:52.719Z,102263.84
2023-01-22T04:30:55.659Z,102260.22
2023-01-22T04:35:57.812Z,102276.75
2023-01-22T04:41:01.426Z,102274.44
2023-01-22T04:46:05.623Z,102274.44
2023-01-22T04:51:07.713Z,102282.16
2023-01-22T04:56:11.393Z,102288.03
2023-01-22T05:01:13.492Z,102293.94
2023-01-22T05:06:15.193Z,102294.81
2023-01-22T05:11:18.803Z,102309.63
2023-01-22T05:16:21.110Z,102314.06
2023-01-22T05:21:23.432Z,102312.81
2023-01-22T05:26:26.885Z,102314.47
2023-01-22T05:31:29.017Z,102326.75
2023-01-22T05:36:31.221Z,102333.66
2023-01-22T05:41:34.890Z,102334.06
2023-01-22T05:46:37.046Z,102341.69
2023-01-22T05:51:39.112Z,102340.84
2023-01-22T05:56:42.793Z,102344.47
2023-01-22T06:01:44.959Z,102346.31
2023-01-22T06:06:47.029Z,102353.78
2023-01-22T06:11:50.328Z,102352.94
2023-01-22T06:16:52.489Z,102369.47
2023-01-22T06:21:55.042Z,102370.69
2023-01-22T06:26:58.529Z,102375.00
2023-01-22T06:32:00.715Z,102369.13
2023-01-22T06:37:02.801Z,102372.09
2023-01-22T06:42:06.505Z,102376.44
2023-01-22T06:47:08.820Z,102385.66
2023-01-22T06:52:11.083Z,102376.91
2023-01-22T06:57:14.556Z,102377.81
2023-01-22T07:02:17.732Z,102383.16
2023-01-22T07:07:19.996Z,102381.72
2023-01-22T07:12:23.425Z,102394.16
2023-01-22T07:17:25.543Z,102409.69
2023-01-22T07:22:27.398Z,102411.31
2023-01-22T07:27:30.539Z,102417.03
2023-01-22T07:32:32.358Z,102423.75
2023-01-22T07:37:34.557Z,102432.56
2023-01-22T07:42:38.873Z,102433.63
2023-01-22T07:47:42.340Z,102443.03
2023-01-22T07:52:45.481Z,102450.88
2023-01-22T07:57:49.092Z,102452.25
2023-01-22T08:02:51.422Z,102450.38
2023-01-22T08:07:53.622Z,102455.41
2023-01-22T08:12:57.191Z,102463.69
2023-01-22T08:17:59.458Z,102471.97
2023-01-22T08:23:01.691Z,102461.50
2023-01-22T08:28:06.324Z,102467.06
2023-01-22T08:33:08.542Z,102469.50
2023-01-22T08:38:10.309Z,102471.81
2023-01-22T08:43:14.072Z,102485.94
2023-01-22T08:48:16.703Z,102489.59
2023-01-22T08:53:18.879Z,102497.31
2023-01-22T08:58:22.380Z,102500.16
2023-01-22T09:03:24.864Z,102506.44
2023-01-22T09:08:26.765Z,102505.31
2023-01-22T09:13:30.437Z,102511.53
2023-01-22T09:18:32.230Z,102528.47
2023-01-22T09:23:34.187Z,102526.72
2023-01-22T09:28:37.528Z,102526.72
2023-01-22T09:33:39.638Z,102528.53
2023-01-22T09:38:42.239Z,102533.41
2023-01-22T09:43:51.191Z,102542.44
2023-01-22T09:48:57.281Z,102549.31
2023-01-22T09:54:03.526Z,102550.63
2023-01-22T09:59:13.763Z,102546.69
2023-01-22T10:04:27.072Z,102546.03
2023-01-22T10:09:31.306Z,102543.09
2023-01-22T10:14:34.396Z,102545.13
2023-01-22T10:19:42.746Z,102548.06
2023-01-22T10:24:45.098Z,102546.13
2023-01-22T10:29:58.038Z,102554.38
2023-01-22T10:35:02.463Z,102549.13
2023-01-22T10:40:05.600Z,102549.78
2023-01-22T10:45:19.236Z,102549.31
2023-01-22T10:50:22.136Z,102553.38
2023-01-22T10:55:27.394Z,102545.19
2023-01-22T11:00:46.718Z,102543.56
2023-01-22T11:05:58.211Z,102550.16
2023-01-22T11:11:04.450Z,102546.56
2023-01-22T11:16:13.048Z,102558.34
2023-01-22T11:21:16.810Z,102563.03
2023-01-22T11:26:29.815Z,102561.81
2023-01-22T11:31:53.091Z,102548.59
2023-01-22T11:37:00.418Z,102553.16
2023-01-22T11:42:13.706Z,102541.84
2023-01-22T11:47:48.709Z,102549.69
2023-01-22T11:52:59.756Z,102542.16
2023-01-22T11:58:09.424Z,102539.47
2023-01-22T12:03:47.306Z,102546.72
2023-01-22T12:08:57.727Z,102535.72
2023-01-22T12:14:35.383Z,102542.06
2023-01-22T12:20:01.773Z,102551.06
2023-01-22T12:25:14.060Z,102548.16
2023-01-22T12:30:22.458Z,102548.84
2023-01-22T12:35:29.322Z,102557.50
2023-01-22T12:40:59.497Z,102553.41
2023-01-22T12:46:10.225Z,102555.72
2023-01-22T12:51:26.326Z,102556.84
2023-01-22T12:56:30.848Z,102548.22
2023-01-22T13:01:34.985Z,102552.31
2023-01-22T13:06:40.260Z,102547.75
2023-01-22T13:11:42.011Z,102552.50
2023-01-22T13:16:52.268Z,102548.78
2023-01-22T13:21:59.127Z,102545.72
2023-01-22T13:27:03.470Z,102549.00
2023-01-22T13:32:15.958Z,102552.69
2023-01-22T13:37:22.858Z,102556.44
2023-01-22T13:42:26.375Z,102552.69
2023-01-22T13:47:31.951Z,102557.75
2023-01-22T13:52:35.496Z,102544.28
2023-01-22T13:57:44.827Z,102555.00
2023-01-22T14:02:47.178Z,102565.31
2023-01-22T14:07:51.945Z,102566.16
2023-01-22T14:13:00.134Z,102562.69
2023-01-22T14:18:09.715Z,102577.53
2023-01-22T14:23:13.440Z,102573.91
2023-01-22T14:28:16.122Z,102582.19
2023-01-22T14:33:24.005Z,102574.97
2023-01-22T14:38:28.463Z,102586.03
2023-01-22T14:43:30.287Z,102601.00
2023-01-22T14:48:32.462Z,102595.38
2023-01-22T14:53:35.990Z,102603.06
2023-01-22T14:58:38.329Z,102601.19
2023-01-22T15:03:40.044Z,102593.66
2023-01-22T15:08:43.780Z,102601.84
2023-01-22T15:13:45.448Z,102604.28
2023-01-22T15:18:47.505Z,102610.50
2023-01-22T15:23:51.471Z,102598.88
2023-01-22T15:28:54.937Z,102607.09
2023-01-22T15:33:57.134Z,102608.56
2023-01-22T15:39:00.674Z,102622.53
2023-01-22T15:44:04.966Z,102637.84
2023-01-22T15:49:08.375Z,102643.91
2023-01-22T15:54:15.331Z,102654.78
2023-01-22T15:59:17.867Z,102656.50
2023-01-22T16:04:19.603Z,102653.16
2023-01-22T16:09:22.726Z,102660.75
2023-01-22T16:14:24.792Z,102658.59
2023-01-22T16:19:26.741Z,102662.94
2023-01-22T16:24:30.114Z,102676.13
2023-01-22T16:29:32.155Z,102671.06
2023-01-22T16:34:34.347Z,102679.72
2023-01-22T16:39:37.671Z,102682.53
2023-01-22T16:44:39.504Z,102690.72
2023-01-22T16:49:41.245Z,102690.38
2023-01-22T16:54:44.669Z,102697.75
2023-01-22T16:59:48.395Z,102693.28
2023-01-22T17:04:50.347Z,102689.88
2023-01-22T17:09:53.998Z,102697.72
2023-01-22T17:14:56.269Z,102712.56
2023-01-22T17:20:00.285Z,102721.75
2023-01-22T17:25:05.447Z,102712.47
2023-01-22T17:30:08.593Z,102718.50
2023-01-22T17:35:10.776Z,102718.16
2023-01-22T17:40:14.233Z,102726.00
2023-01-22T17:45:15.989Z,102736.31
2023-01-22T17:50:18.024Z,102735.50
2023-01-22T17:55:21.680Z,102741.19
2023-01-22T18:00:24.486Z,102742.19
2023-01-22T18:05:26.494Z,102740.88
2023-01-22T18:10:30.332Z,102750.03
2023-01-22T18:15:32.584Z,102740.13
2023-01-22T18:20:34.383Z,102743.94
2023-01-22T18:25:42.487Z,102751.25
2023-01-22T18:30:46.705Z,102755.91
2023-01-22T18:35:51.036Z,102745.91
2023-01-22T18:40:55.039Z,102762.31
2023-01-22T18:46:02.935Z,102767.56
2023-01-22T18:51:06.394Z,102765.00
2023-01-22T18:56:11.655Z,102760.59
2023-01-22T19:01:16.195Z,102755.59
2023-01-22T19:06:20.811Z,102751.22
2023-01-22T19:11:24.715Z,102756.91
2023-01-22T19:16:28.323Z,102769.00
2023-01-22T19:21:30.852Z,102769.81
2023-01-22T19:26:35.767Z,102781.25
2023-01-22T19:31:39.281Z,102787.13
2023-01-22T19:36:41.673Z,102788.13
2023-01-22T19:41:44.944Z,102773.25
2023-01-22T19:46:47.512Z,102781.97
2023-01-22T19:51:50.279Z,102799.50
2023-01-22T19:56:54.621Z,102809.44
2023-01-22T20:01:57.556Z,102801.84
2023-01-22T20:07:02.165Z,102807.50
2023-01-22T20:12:06.895Z,102811.31
2023-01-22T20:17:09.344Z,102814.91
2023-01-22T20:22:11.940Z,102816.97
2023-01-22T20:27:16.272Z,102820.31
2023-01-22T20:32:18.582Z,102826.81
2023-01-22T20:37:20.601Z,102831.06
2023-01-22T20:42:24.570Z,102821.88
2023-01-22T20:47:27.156Z,102843.25
2023-01-22T20:52:29.143Z,102858.88
2023-01-22T20:57:32.945Z,102863.75
2023-01-22T21:02:35.272Z,102857.69
2023-01-22T21:07:37.204Z,102862.69
2023-01-22T21:12:42.095Z,102876.03
2023-01-22T21:17:44.296Z,102874.78
2023-01-22T21:22:46.810Z,102883.44
2023-01-22T21:27:51.233Z,102881.09
2023-01-22T21:32:53.309Z,102884.16
2023-01-22T21:37:55.676Z,102885.78
2023-01-22T21:42:59.273Z,102874.97
2023-01-22T21:48:01.959Z,102876.94
2023-01-22T21:53:04.428Z,102879.28
2023-01-22T21:58:09.048Z,102880.91
2023-01-22T22:03:11.461Z,102883.81
2023-01-22T22:08:13.169Z,102892.81
2023-01-22T22:13:16.670Z,102903.91
2023-01-22T22:18:18.604Z,102907.44
2023-01-22T22:23:20.900Z,102909.59
2023-01-22T22:28:24.681Z,102914.38
2023-01-22T22:33:26.747Z,102921.88
2023-01-22T22:38:28.963Z,102927.22
2023-01-22T22:43:37.704Z,102934.44
2023-01-22T22:48:39.941Z,102931.81
2023-01-22T22:53:41.773Z,102934.25
2023-01-22T22:58:45.552Z,102930.75
2023-01-22T23:03:48.094Z,102922.97
2023-01-22T23:08:52.941Z,102934.34
2023-01-22T23:13:57.222Z,102924.94
2023-01-22T23:19:01.018Z,102926.59
2023-01-22T23:24:03.350Z,102935.25
2023-01-22T23:29:10.627Z,102938.25
2023-01-22T23:34:16.730Z,102942.28
2023-01-22T23:39:20.683Z,102946.69
2023-01-22T23:44:24.357Z,102961.63
2023-01-22T23:49:26.441Z,102968.47
2023-01-22T23:54:28.578Z,102973.72
2023-01-22T23:59:32.064Z,102971.88
